createdAt,value
2022-11-05T00:01:19.817Z,6.35
2022-11-05T00:04:01.920Z,6.37
2022-11-05T00:06:43.902Z,6.41
2022-11-05T00:09:26.707Z,6.39
2022-11-05T00:12:08.482Z,6.42
2022-11-05T00:14:50.330Z,6.42
2022-11-05T00:17:16.953Z,6.38
2022-11-05T00:19:43.666Z,6.34
2022-11-05T00:22:25.472Z,6.32
2022-11-05T00:25:07.246Z,6.30
2022-11-05T00:27:34.362Z,6.32
2022-11-05T00:30:01.041Z,6.34
2022-11-05T00:32:27.619Z,6.34
2022-11-05T00:34:54.246Z,6.27
2022-11-05T00:37:20.842Z,6.31
2022-11-05T00:39:47.478Z,6.31
2022-11-05T00:42:29.424Z,6.30
2022-11-05T00:45:03.448Z,6.31
2022-11-05T00:47:47.104Z,6.32
2022-11-05T00:50:14.235Z,6.31
2022-11-05T00:52:56.112Z,6.30
2022-11-05T00:55:24.206Z,6.34
2022-11-05T00:57:51.197Z,6.33
2022-11-05T01:00:18.348Z,6.41
2022-11-05T01:02:45.143Z,6.40
2022-11-05T01:05:12.093Z,6.37
2022-11-05T01:07:38.669Z,6.38
2022-11-05T01:10:05.893Z,6.38
2022-11-05T01:12:32.557Z,6.37
2022-11-05T01:14:59.510Z,6.34
2022-11-05T01:17:26.092Z,6.36
2022-11-05T01:19:52.727Z,6.34
2022-11-05T01:22:19.364Z,6.37
2022-11-05T01:24:46.071Z,6.28
2022-11-05T01:27:12.699Z,6.24
2022-11-05T01:29:39.299Z,6.28
2022-11-05T01:32:06.219Z,6.28
2022-11-05T01:34:32.835Z,6.20
2022-11-05T01:36:59.526Z,6.19
2022-11-05T01:39:26.177Z,6.14
2022-11-05T01:41:52.878Z,6.15
2022-11-05T01:44:49.930Z,6.13
2022-11-05T01:47:38.889Z,6.11
2022-11-05T01:50:17.612Z,6.05
2022-11-05T01:52:44.399Z,6.01
2022-11-05T01:55:13.480Z,6.01
2022-11-05T01:57:40.706Z,6.01
2022-11-05T02:00:07.820Z,6.05
2022-11-05T02:02:34.519Z,5.98
2022-11-05T02:05:05.250Z,5.95
2022-11-05T02:07:33.115Z,5.92
2022-11-05T02:10:10.020Z,6.03
2022-11-05T02:12:39.451Z,6.08
2022-11-05T02:15:06.835Z,6.03
2022-11-05T02:17:57.883Z,6.00
2022-11-05T02:20:26.519Z,6.05
2022-11-05T02:23:20.497Z,6.00
2022-11-05T02:25:59.899Z,6.01
2022-11-05T02:28:36.923Z,5.99
2022-11-05T02:31:06.688Z,6.01
2022-11-05T02:33:47.126Z,6.10
2022-11-05T02:36:15.739Z,6.10
2022-11-05T02:39:00.715Z,6.09
2022-11-05T02:41:54.441Z,6.15
2022-11-05T02:44:47.716Z,6.15
2022-11-05T02:47:42.827Z,6.14
2022-11-05T02:50:43.100Z,6.20
2022-11-05T02:53:17.052Z,6.24
2022-11-05T02:56:10.166Z,6.26
2022-11-05T02:58:39.864Z,6.25
2022-11-05T03:01:07.157Z,6.23
2022-11-05T03:03:38.997Z,6.17
2022-11-05T03:06:21.852Z,6.17
2022-11-05T03:08:50.490Z,6.18
2022-11-05T03:11:20.670Z,6.22
2022-11-05T03:13:57.618Z,6.16
2022-11-05T03:16:36.514Z,6.16
2022-11-05T03:19:04.127Z,6.08
2022-11-05T03:21:53.602Z,6.03
2022-11-05T03:24:26.908Z,5.99
2022-11-05T03:26:57.062Z,6.08
2022-11-05T03:29:28.257Z,6.12
2022-11-05T03:31:57.649Z,6.08
2022-11-05T03:34:31.889Z,6.08
2022-11-05T03:37:00.633Z,6.05
2022-11-05T03:39:36.086Z,6.06
2022-11-05T03:42:06.596Z,6.07
2022-11-05T03:44:39.354Z,6.05
2022-11-05T03:47:14.992Z,6.06
2022-11-05T03:49:57.814Z,6.03
2022-11-05T03:52:30.158Z,6.04
2022-11-05T03:54:56.941Z,6.15
2022-11-05T03:57:30.026Z,6.09
2022-11-05T03:59:59.944Z,6.07
2022-11-05T04:02:27.622Z,6.06
2022-11-05T04:04:55.040Z,6.04
2022-11-05T04:07:36.886Z,6.04
2022-11-05T04:10:19.203Z,6.06
2022-11-05T04:13:01.388Z,6.02
2022-11-05T04:15:29.780Z,6.01
2022-11-05T04:17:58.925Z,6.14
2022-11-05T04:20:41.785Z,6.08
2022-11-05T04:23:25.079Z,6.03
2022-11-05T04:25:51.936Z,5.97
2022-11-05T04:28:19.331Z,5.95
2022-11-05T04:30:45.967Z,5.91
2022-11-05T04:33:16.286Z,5.90
2022-11-05T04:35:46.860Z,5.93
2022-11-05T04:38:15.906Z,6.07
2022-11-05T04:40:43.445Z,6.07
2022-11-05T04:43:15.322Z,6.00
2022-11-05T04:45:42.631Z,5.98
2022-11-05T04:48:09.398Z,6.00
2022-11-05T04:50:36.259Z,5.96
2022-11-05T04:53:03.411Z,5.96
2022-11-05T04:55:30.143Z,5.93
2022-11-05T04:57:57.014Z,5.96
2022-11-05T05:00:24.721Z,5.93
2022-11-05T05:02:51.660Z,5.93
2022-11-05T05:05:18.484Z,5.89
2022-11-05T05:07:45.138Z,5.88
2022-11-05T05:10:12.603Z,5.88
2022-11-05T05:12:39.287Z,5.95
2022-11-05T05:15:06.474Z,5.91
2022-11-05T05:17:33.104Z,5.92
2022-11-05T05:20:15.025Z,5.90
2022-11-05T05:22:41.635Z,5.92
2022-11-05T05:25:08.473Z,5.91
2022-11-05T05:27:35.174Z,5.93
2022-11-05T05:30:02.011Z,5.92
2022-11-05T05:32:28.615Z,5.92
2022-11-05T05:34:55.258Z,5.92
2022-11-05T05:37:21.921Z,5.91
2022-11-05T05:39:48.613Z,5.94
2022-11-05T05:42:15.614Z,5.88
2022-11-05T05:44:42.566Z,5.93
2022-11-05T05:47:09.482Z,5.99
2022-11-05T05:49:36.097Z,5.91
2022-11-05T05:52:03.078Z,5.94
2022-11-05T05:54:33.408Z,5.93
2022-11-05T05:57:00.911Z,5.97
2022-11-05T05:59:27.556Z,6.04
2022-11-05T06:01:54.294Z,6.01
2022-11-05T06:04:21.097Z,5.99
2022-11-05T06:06:48.290Z,5.98
2022-11-05T06:09:15.131Z,5.93
2022-11-05T06:11:42.184Z,5.99
2022-11-05T06:14:11.558Z,6.04
2022-11-05T06:16:39.281Z,6.03
2022-11-05T06:19:06.820Z,6.01
2022-11-05T06:21:33.441Z,6.04
2022-11-05T06:24:01.070Z,6.05
2022-11-05T06:26:28.244Z,6.05
2022-11-05T06:28:57.563Z,6.02
2022-11-05T06:31:24.495Z,5.97
2022-11-05T06:33:51.138Z,6.04
2022-11-05T06:36:19.344Z,5.98
2022-11-05T06:38:46.272Z,5.99
2022-11-05T06:41:13.074Z,6.05
2022-11-05T06:43:39.768Z,6.06
2022-11-05T06:46:06.965Z,6.09
2022-11-05T06:48:34.255Z,6.05
2022-11-05T06:51:01.050Z,6.05
2022-11-05T06:53:27.783Z,6.05
2022-11-05T06:55:54.460Z,6.07
2022-11-05T06:58:21.297Z,6.09
2022-11-05T07:00:48.532Z,6.09
2022-11-05T07:03:15.451Z,6.10
2022-11-05T07:05:47.921Z,6.10
2022-11-05T07:08:15.013Z,6.09
2022-11-05T07:10:41.623Z,6.13
2022-11-05T07:13:08.971Z,6.17
2022-11-05T07:15:36.810Z,6.20
2022-11-05T07:18:05.185Z,6.25
2022-11-05T07:20:34.337Z,6.22
2022-11-05T07:23:05.433Z,6.18
2022-11-05T07:25:34.714Z,6.20
2022-11-05T07:28:02.299Z,6.21
2022-11-05T07:30:30.917Z,6.23
2022-11-05T07:32:57.772Z,6.21
2022-11-05T07:35:24.755Z,6.25
2022-11-05T07:37:54.683Z,6.25
2022-11-05T07:40:23.248Z,6.30
2022-11-05T07:42:52.405Z,6.38
2022-11-05T07:45:19.642Z,6.33
2022-11-05T07:47:51.920Z,6.46
2022-11-05T07:50:20.218Z,6.51
2022-11-05T07:52:48.692Z,6.55
2022-11-05T07:55:16.529Z,6.52
2022-11-05T07:57:45.229Z,6.57
2022-11-05T08:00:17.464Z,6.54
2022-11-05T08:02:44.565Z,6.63
2022-11-05T08:05:11.386Z,6.55
2022-11-05T08:07:38.142Z,6.58
2022-11-05T08:10:05.118Z,6.57
2022-11-05T08:12:32.405Z,6.56
2022-11-05T08:14:59.163Z,6.58
2022-11-05T08:17:25.831Z,6.57
2022-11-05T08:19:52.615Z,6.68
2022-11-05T08:22:19.224Z,6.67
2022-11-05T08:24:45.891Z,6.64
2022-11-05T08:27:12.573Z,6.68
2022-11-05T08:29:39.237Z,6.72
2022-11-05T08:32:05.966Z,6.74
2022-11-05T08:34:32.627Z,6.67
2022-11-05T08:37:01.384Z,6.68
2022-11-05T08:39:28.328Z,6.74
2022-11-05T08:41:55.190Z,6.76
2022-11-05T08:44:22.199Z,6.79
2022-11-05T08:46:49.644Z,6.85
2022-11-05T08:49:16.794Z,6.93
2022-11-05T08:51:44.990Z,6.89
2022-11-05T08:54:12.081Z,6.96
2022-11-05T08:56:38.844Z,7.00
2022-11-05T08:59:05.930Z,7.09
2022-11-05T09:01:34.183Z,7.16
2022-11-05T09:04:00.954Z,7.31
2022-11-05T09:06:27.872Z,7.25
2022-11-05T09:08:54.841Z,7.30
2022-11-05T09:11:21.607Z,7.34
2022-11-05T09:13:48.368Z,7.39
2022-11-05T09:16:18.899Z,7.40
2022-11-05T09:18:45.470Z,7.41
2022-11-05T09:21:12.085Z,7.41
2022-11-05T09:23:39.234Z,7.38
2022-11-05T09:26:06.043Z,7.34
2022-11-05T09:28:33.281Z,7.38
2022-11-05T09:31:00.584Z,7.35
2022-11-05T09:33:28.050Z,7.35
2022-11-05T09:35:54.744Z,7.36
2022-11-05T09:38:21.683Z,7.34
2022-11-05T09:40:57.317Z,7.33
2022-11-05T09:43:41.625Z,7.42
2022-11-05T09:46:16.535Z,7.49
2022-11-05T09:48:47.932Z,7.45
2022-11-05T09:51:22.393Z,7.37
2022-11-05T09:53:50.849Z,7.47
2022-11-05T09:56:21.193Z,7.43
2022-11-05T09:58:53.095Z,7.44
2022-11-05T10:01:25.339Z,7.50
2022-11-05T10:03:56.906Z,7.68
2022-11-05T10:06:27.290Z,7.71
2022-11-05T10:09:02.096Z,7.72
2022-11-05T10:11:36.261Z,7.85
2022-11-05T10:14:14.132Z,7.88
2022-11-05T10:16:44.080Z,7.98
2022-11-05T10:19:22.175Z,7.96
2022-11-05T10:24:35.421Z,8.18
2022-11-05T10:27:02.845Z,8.07
2022-11-05T10:29:33.044Z,8.16
2022-11-05T10:32:03.473Z,8.18
2022-11-05T10:34:34.200Z,8.10
2022-11-05T10:37:01.440Z,8.16
2022-11-05T10:39:31.328Z,8.29
2022-11-05T10:42:14.303Z,8.31
2022-11-05T10:44:48.562Z,8.28
2022-11-05T10:47:30.617Z,8.27
2022-11-05T10:50:00.117Z,8.25
2022-11-05T10:52:33.954Z,8.31
2022-11-05T10:55:04.399Z,8.45
2022-11-05T10:57:31.976Z,8.38
2022-11-05T11:00:14.825Z,8.40
2022-11-05T11:02:43.357Z,8.34
2022-11-05T11:05:18.894Z,8.41
2022-11-05T11:07:55.825Z,8.45
2022-11-05T11:10:23.861Z,8.55
2022-11-05T11:12:51.474Z,8.49
2022-11-05T11:15:27.375Z,8.57
2022-11-05T11:17:56.134Z,8.53
2022-11-05T11:20:22.866Z,8.56
2022-11-05T11:23:04.809Z,8.49
2022-11-05T11:25:51.031Z,8.52
2022-11-05T11:28:23.922Z,8.50
2022-11-05T11:31:07.975Z,8.53
2022-11-05T11:33:37.599Z,8.54
2022-11-05T11:36:06.368Z,8.56
2022-11-05T11:38:37.644Z,8.55
2022-11-05T11:41:16.933Z,8.52
2022-11-05T11:43:45.028Z,8.52
2022-11-05T11:46:16.390Z,8.55
2022-11-05T11:48:48.266Z,8.56
2022-11-05T11:51:20.179Z,8.59
2022-11-05T11:53:48.975Z,8.66
2022-11-05T11:56:20.589Z,8.62
2022-11-05T11:58:50.266Z,8.70
2022-11-05T12:01:20.148Z,8.70
2022-11-05T12:03:54.462Z,8.74
2022-11-05T12:06:26.891Z,8.73
2022-11-05T12:09:15.791Z,8.73
2022-11-05T12:12:02.456Z,8.67
2022-11-05T12:14:57.909Z,8.59
2022-11-05T12:17:28.581Z,8.62
2022-11-05T12:20:16.771Z,8.62
2022-11-05T12:22:58.603Z,8.59
2022-11-05T12:25:29.011Z,8.60
2022-11-05T12:28:24.543Z,8.64
2022-11-05T12:30:59.894Z,8.68
2022-11-05T12:33:42.300Z,8.64
2022-11-05T12:36:17.762Z,8.64
2022-11-05T12:39:00.743Z,8.62
2022-11-05T12:41:38.746Z,8.65
2022-11-05T12:44:26.046Z,8.66
2022-11-05T12:47:25.337Z,8.62
2022-11-05T12:50:15.333Z,8.70
2022-11-05T12:52:57.261Z,8.75
2022-11-05T12:55:28.860Z,8.76
2022-11-05T12:58:03.751Z,8.76
2022-11-05T13:00:30.798Z,8.90
2022-11-05T13:03:07.602Z,8.98
2022-11-05T13:05:38.411Z,9.06
2022-11-05T13:08:10.140Z,9.16
2022-11-05T13:10:45.956Z,9.20
2022-11-05T13:13:23.269Z,9.17
2022-11-05T13:15:54.038Z,9.17
2022-11-05T13:18:27.419Z,9.22
2022-11-05T13:20:56.433Z,9.20
2022-11-05T13:23:35.239Z,9.21
2022-11-05T13:26:15.617Z,9.20
2022-11-05T13:28:54.295Z,9.15
2022-11-05T13:31:27.754Z,9.21
2022-11-05T13:33:55.278Z,9.24
2022-11-05T13:36:42.701Z,9.34
2022-11-05T13:39:27.669Z,9.29
2022-11-05T13:42:24.476Z,9.42
2022-11-05T13:45:21.656Z,9.42
2022-11-05T13:48:09.227Z,9.40
2022-11-05T13:51:11.007Z,9.22
2022-11-05T13:53:53.076Z,9.22
2022-11-05T13:56:20.688Z,9.10
2022-11-05T13:59:17.530Z,9.01
2022-11-05T14:01:55.668Z,9.09
2022-11-05T14:04:45.138Z,9.10
2022-11-05T14:07:31.374Z,9.09
2022-11-05T14:09:59.658Z,9.12
2022-11-05T14:12:26.342Z,9.10
2022-11-05T14:14:59.948Z,8.99
2022-11-05T14:17:57.221Z,9.04
2022-11-05T14:20:44.782Z,9.02
2022-11-05T14:23:27.868Z,8.93
2022-11-05T14:25:56.295Z,8.97
2022-11-05T14:28:40.125Z,8.97
2022-11-05T14:31:40.981Z,8.99
2022-11-05T14:34:10.058Z,8.92
2022-11-05T14:36:38.461Z,8.88
2022-11-05T14:39:23.901Z,8.86
2022-11-05T14:41:54.069Z,8.84
2022-11-05T14:44:21.328Z,8.92
2022-11-05T14:46:50.647Z,8.95
2022-11-05T14:49:23.573Z,8.87
2022-11-05T14:51:54.105Z,8.87
2022-11-05T14:54:40.376Z,8.79
2022-11-05T14:57:11.109Z,8.76
2022-11-05T14:59:57.575Z,8.74
2022-11-05T15:02:32.555Z,8.72
2022-11-05T15:05:34.507Z,8.77
2022-11-05T15:08:27.890Z,8.75
2022-11-05T15:11:02.234Z,8.74
2022-11-05T15:13:34.385Z,8.75
2022-11-05T15:16:03.945Z,8.77
2022-11-05T15:18:36.879Z,8.73
2022-11-05T15:21:08.674Z,8.76
2022-11-05T15:23:41.073Z,8.72
2022-11-05T15:26:12.690Z,8.74
2022-11-05T15:28:45.845Z,8.83
2022-11-05T15:31:12.450Z,8.78
2022-11-05T15:33:41.941Z,8.76
2022-11-05T15:36:22.365Z,8.74
2022-11-05T15:39:08.493Z,8.78
2022-11-05T15:41:36.164Z,8.78
2022-11-05T15:44:03.117Z,8.80
2022-11-05T15:46:30.205Z,8.73
2022-11-05T15:49:06.602Z,8.65
2022-11-05T15:51:33.509Z,8.62
2022-11-05T15:54:28.498Z,8.58
2022-11-05T15:56:52.180Z,8.59
2022-11-05T15:59:21.913Z,8.56
2022-11-05T16:01:56.646Z,8.56
2022-11-05T16:04:28.518Z,8.55
2022-11-05T16:06:59.739Z,8.54
2022-11-05T16:09:27.982Z,8.49
2022-11-05T16:12:25.287Z,8.51
2022-11-05T16:15:00.068Z,8.48
2022-11-05T16:17:31.535Z,8.47
2022-11-05T16:19:58.381Z,8.48
2022-11-05T16:22:25.175Z,8.45
2022-11-05T16:24:51.793Z,8.44
2022-11-05T16:27:22.044Z,8.44
2022-11-05T16:29:52.058Z,8.44
2022-11-05T16:32:29.841Z,8.42
2022-11-05T16:35:00.258Z,8.37
2022-11-05T16:37:33.191Z,8.33
2022-11-05T16:39:59.787Z,8.28
2022-11-05T16:42:37.926Z,8.28
2022-11-05T16:45:05.954Z,8.24
2022-11-05T16:47:32.706Z,8.27
2022-11-05T16:49:59.295Z,8.24
2022-11-05T16:52:25.993Z,8.22
2022-11-05T16:54:53.703Z,8.22
2022-11-05T16:57:31.006Z,8.22
2022-11-05T16:59:59.703Z,8.24
2022-11-05T17:02:26.985Z,8.23
2022-11-05T17:04:53.673Z,8.25
2022-11-05T17:07:20.314Z,8.26
2022-11-05T17:09:46.913Z,8.24
2022-11-05T17:12:14.394Z,8.28
2022-11-05T17:14:41.003Z,8.25
2022-11-05T17:17:07.656Z,8.22
2022-11-05T17:19:34.379Z,8.20
2022-11-05T17:22:00.970Z,8.19
2022-11-05T17:24:27.569Z,8.21
2022-11-05T17:26:54.721Z,8.26
2022-11-05T17:29:21.447Z,8.16
2022-11-05T17:31:48.987Z,8.09
2022-11-05T17:34:15.770Z,8.08
2022-11-05T17:36:42.596Z,8.07
2022-11-05T17:39:10.952Z,8.05
2022-11-05T17:41:37.780Z,8.02
2022-11-05T17:44:04.446Z,7.99
2022-11-05T17:46:31.090Z,7.98
2022-11-05T17:48:57.678Z,8.14
2022-11-05T17:51:24.238Z,8.21
2022-11-05T17:53:51.039Z,8.30
2022-11-05T17:56:32.258Z,8.20
2022-11-05T17:59:00.886Z,8.26
2022-11-05T18:01:30.575Z,8.13
2022-11-05T18:03:57.657Z,8.07
2022-11-05T18:06:24.465Z,8.02
2022-11-05T18:08:51.224Z,8.02
2022-11-05T18:11:17.852Z,7.99
2022-11-05T18:13:44.464Z,7.99
2022-11-05T18:16:11.024Z,8.04
2022-11-05T18:18:37.619Z,8.04
2022-11-05T18:21:04.261Z,8.06
2022-11-05T18:23:30.870Z,8.02
2022-11-05T18:25:57.829Z,8.08
2022-11-05T18:28:24.580Z,8.04
2022-11-05T18:30:51.382Z,8.10
2022-11-05T18:33:17.988Z,8.09
2022-11-05T18:35:44.849Z,8.01
2022-11-05T18:38:12.071Z,8.06
2022-11-05T18:40:38.725Z,8.02
2022-11-05T18:43:05.345Z,8.00
2022-11-05T18:45:33.858Z,7.99
2022-11-05T18:48:02.045Z,8.02
2022-11-05T18:50:29.360Z,7.97
2022-11-05T18:52:56.414Z,8.12
2022-11-05T18:55:24.724Z,8.05
2022-11-05T18:57:51.442Z,7.98
2022-11-05T19:00:18.328Z,7.95
2022-11-05T19:02:45.088Z,7.96
2022-11-05T19:05:28.433Z,7.95
2022-11-05T19:07:55.852Z,7.93
2022-11-05T19:10:22.677Z,7.92
2022-11-05T19:12:49.409Z,8.02
2022-11-05T19:15:16.005Z,7.94
2022-11-05T19:17:42.997Z,7.89
2022-11-05T19:20:10.132Z,7.90
2022-11-05T19:22:36.789Z,7.90
2022-11-05T19:25:03.997Z,7.88
2022-11-05T19:27:30.639Z,7.90
2022-11-05T19:29:57.330Z,8.07
2022-11-05T19:32:24.544Z,7.91
2022-11-05T19:34:51.113Z,7.88
2022-11-05T19:37:17.695Z,7.86
2022-11-05T19:39:44.860Z,7.84
2022-11-05T19:42:11.613Z,7.83
2022-11-05T19:44:38.350Z,7.81
2022-11-05T19:47:04.993Z,7.90
2022-11-05T19:49:34.792Z,7.80
2022-11-05T19:52:01.395Z,7.83
2022-11-05T19:54:28.001Z,7.77
2022-11-05T19:56:54.596Z,7.72
2022-11-05T19:59:21.215Z,7.71
2022-11-05T20:01:47.898Z,7.74
2022-11-05T20:04:17.795Z,7.64
2022-11-05T20:06:44.557Z,7.56
2022-11-05T20:09:21.595Z,7.43
2022-11-05T20:11:49.909Z,7.30
2022-11-05T20:14:17.183Z,7.28
2022-11-05T20:16:45.941Z,7.18
2022-11-05T20:19:16.232Z,7.19
2022-11-05T20:21:43.225Z,7.15
2022-11-05T20:24:12.355Z,7.18
2022-11-05T20:26:39.614Z,7.16
2022-11-05T20:29:06.460Z,7.14
2022-11-05T20:31:33.073Z,7.05
2022-11-05T20:33:59.754Z,7.03
2022-11-05T20:36:26.714Z,7.01
2022-11-05T20:38:56.573Z,7.04
2022-11-05T20:41:24.231Z,7.00
2022-11-05T20:43:51.646Z,6.99
2022-11-05T20:46:20.178Z,6.97
2022-11-05T20:48:47.198Z,6.93
2022-11-05T20:51:17.077Z,6.95
2022-11-05T20:53:44.149Z,6.94
2022-11-05T20:56:20.570Z,6.88
2022-11-05T20:58:48.765Z,6.94
2022-11-05T21:01:16.638Z,6.98
2022-11-05T21:03:44.865Z,7.03
2022-11-05T21:06:12.083Z,6.88
2022-11-05T21:08:39.200Z,6.86
2022-11-05T21:11:06.854Z,6.80
2022-11-05T21:13:34.059Z,6.81
2022-11-05T21:16:01.412Z,6.77
2022-11-05T21:18:31.418Z,6.76
2022-11-05T21:21:00.428Z,6.78
2022-11-05T21:23:28.605Z,6.75
2022-11-05T21:25:55.508Z,6.72
2022-11-05T21:28:22.263Z,6.70
2022-11-05T21:30:49.168Z,6.62
2022-11-05T21:33:17.773Z,6.67
2022-11-05T21:35:46.664Z,6.62
2022-11-05T21:38:15.713Z,6.63
2022-11-05T21:40:43.023Z,6.57
2022-11-05T21:43:10.277Z,6.51
2022-11-05T21:45:39.879Z,6.49
2022-11-05T21:48:07.432Z,6.46
2022-11-05T21:50:49.528Z,6.39
2022-11-05T21:53:33.024Z,6.28
2022-11-05T21:56:15.120Z,6.21
2022-11-05T21:58:56.942Z,6.27
2022-11-05T22:01:23.973Z,6.21
2022-11-05T22:03:50.645Z,6.25
2022-11-05T22:06:17.407Z,6.21
2022-11-05T22:08:44.142Z,6.23
2022-11-05T22:11:10.705Z,6.26
2022-11-05T22:13:37.286Z,6.29
2022-11-05T22:16:04.040Z,6.31
2022-11-05T22:18:30.617Z,6.36
2022-11-05T22:20:57.165Z,6.28
2022-11-05T22:23:23.719Z,6.24
2022-11-05T22:25:50.453Z,6.21
2022-11-05T22:28:17.050Z,6.11
2022-11-05T22:30:43.666Z,6.14
2022-11-05T22:33:10.646Z,5.96
2022-11-05T22:35:39.345Z,5.83
2022-11-05T22:38:18.658Z,5.73
2022-11-05T22:40:45.227Z,5.54
2022-11-05T22:43:11.868Z,5.53
2022-11-05T22:45:38.495Z,5.50
2022-11-05T22:48:06.982Z,5.46
2022-11-05T22:50:33.883Z,5.47
2022-11-05T22:53:00.496Z,5.56
2022-11-05T22:55:27.110Z,5.59
2022-11-05T22:57:53.849Z,5.61
2022-11-05T23:00:20.509Z,5.59
2022-11-05T23:02:47.303Z,5.56
2022-11-05T23:05:16.097Z,5.53
2022-11-05T23:07:57.994Z,5.48
2022-11-05T23:10:40.038Z,5.46
2022-11-05T23:13:07.976Z,5.41
2022-11-05T23:15:49.760Z,5.33
2022-11-05T23:18:31.650Z,5.03
2022-11-05T23:21:13.664Z,4.96
2022-11-05T23:23:55.696Z,4.89
2022-11-05T23:26:37.486Z,5.08
2022-11-05T23:29:04.381Z,5.10
2022-11-05T23:31:46.239Z,5.07
2022-11-05T23:34:12.780Z,5.08
2022-11-05T23:36:54.703Z,5.08
2022-11-05T23:39:21.348Z,4.91
2022-11-05T23:42:03.174Z,4.82
2022-11-05T23:44:44.969Z,4.81
2022-11-05T23:47:26.752Z,4.49
2022-11-05T23:49:56.544Z,4.57
2022-11-05T23:52:23.310Z,4.43
2022-11-05T23:54:49.897Z,4.43
2022-11-05T23:57:16.451Z,4.43
2022-11-05T23:59:43.045Z,4.47
